Time;durP1;ratioP1;P1;durP2;ratioP2;P2;SDS_P1;SDS_P2;PMS_P1;PMS_P2;Temp;Humidity;BMP_temperature;BMP_pressure;BME280_temperature;BME280_humidity;BME280_pressure;Samples;Min_cycle;Max_cycle;Signal;HPM_P1;HPM_P2
2022/11/10 00:00:08;;;;;;;5.68;2.45;;;;;;;;;;5024649;28;20026;-64
2022/11/10 00:02:34;;;;;;;7.65;2.55;;;;;;;;;;5023992;28;20050;-64
2022/11/10 00:04:59;;;;;;;9.15;2.25;;;;;;;;;;5039292;28;20053;-64
2022/11/10 00:07:26;;;;;;;9.13;2.83;;;;;;;;;;5040919;28;20064;-64
2022/11/10 00:09:52;;;;;;;6.78;1.90;;;;;;;;;;5042797;28;20056;-64
2022/11/10 00:12:18;;;;;;;5.30;1.90;;;;;;;;;;5060476;28;20308;-64
2022/11/10 00:17:28;;;;;;;6.88;1.95;;;;;;;;;;5039443;28;20044;-64
2022/11/10 00:19:53;;;;;;;11.82;2.90;;;;;;;;;;5043252;28;20036;-64
2022/11/10 00:22:18;;;;;;;12.02;2.30;;;;;;;;;;5042296;28;20171;-65
2022/11/10 00:24:44;;;;;;;7.75;1.60;;;;;;;;;;5044011;28;20075;-64
2022/11/10 00:27:10;;;;;;;8.40;2.38;;;;;;;;;;5042831;28;20498;-64
2022/11/10 00:29:35;;;;;;;8.18;1.90;;;;;;;;;;5043355;28;20029;-64
2022/11/10 00:32:00;;;;;;;8.85;2.08;;;;;;;;;;5043483;28;20811;-64
2022/11/10 00:34:26;;;;;;;7.22;2.08;;;;;;;;;;5044190;28;20029;-64
2022/11/10 00:36:51;;;;;;;10.70;2.17;;;;;;;;;;5044558;28;20021;-64
2022/11/10 00:39:16;;;;;;;7.00;1.65;;;;;;;;;;5048428;28;20013;-64
2022/11/10 00:41:42;;;;;;;10.40;1.90;;;;;;;;;;5039093;28;20049;-64
2022/11/10 00:44:07;;;;;;;3.28;1.58;;;;;;;;;;5038725;28;20071;-64
2022/11/10 00:46:32;;;;;;;6.28;2.35;;;;;;;;;;5067192;28;20037;-64
2022/11/10 00:48:58;;;;;;;8.60;2.05;;;;;;;;;;5067250;28;20417;-64
2022/11/10 00:51:25;;;;;;;9.90;2.35;;;;;;;;;;5049602;28;20104;-64
2022/11/10 00:53:51;;;;;;;7.40;1.85;;;;;;;;;;5045234;28;20081;-64
2022/11/10 00:56:17;;;;;;;8.55;2.03;;;;;;;;;;5046994;28;20463;-64
2022/11/10 00:58:42;;;;;;;4.57;2.00;;;;;;;;;;5046785;28;20470;-64
2022/11/10 01:01:09;;;;;;;5.72;2.28;;;;;;;;;;5045748;28;20068;-64
2022/11/10 01:03:34;;;;;;;12.25;2.17;;;;;;;;;;5045249;28;20546;-64
2022/11/10 01:06:08;;;;;;;8.43;2.55;;;;;;;;;;5041399;28;20021;-64
2022/11/10 01:08:34;;;;;;;7.07;2.20;;;;;;;;;;5041270;28;20120;-64
2022/11/10 01:11:02;;;;;;;11.23;2.25;;;;;;;;;;5040922;28;20032;-64
2022/11/10 01:13:28;;;;;;;9.65;2.13;;;;;;;;;;5066911;28;20115;-64
2022/11/10 01:15:53;;;;;;;12.23;2.33;;;;;;;;;;5062896;28;20124;-64
2022/11/10 01:18:19;;;;;;;9.90;2.80;;;;;;;;;;5046767;28;20021;-64
2022/11/10 01:20:50;;;;;;;11.93;2.10;;;;;;;;;;5046697;28;20398;-63
2022/11/10 01:23:15;;;;;;;5.90;2.15;;;;;;;;;;5047010;28;20036;-64
2022/11/10 01:25:40;;;;;;;6.57;2.17;;;;;;;;;;5041227;28;20025;-64
2022/11/10 01:28:06;;;;;;;12.25;2.30;;;;;;;;;;5030051;28;20041;-64
2022/11/10 01:30:31;;;;;;;9.68;1.98;;;;;;;;;;5046891;28;20028;-64
2022/11/10 01:32:56;;;;;;;6.95;1.80;;;;;;;;;;5044007;28;20735;-64
2022/11/10 01:35:22;;;;;;;8.10;2.20;;;;;;;;;;5046668;28;20055;-64
2022/11/10 01:37:50;;;;;;;8.60;2.30;;;;;;;;;;5046184;28;20029;-64
2022/11/10 01:40:15;;;;;;;12.90;2.40;;;;;;;;;;5046145;28;20028;-64
2022/11/10 01:42:48;;;;;;;5.55;2.10;;;;;;;;;;5037825;28;20094;-64
2022/11/10 01:45:22;;;;;;;;;;;;;;;;;;5034690;28;20044;-64
2022/11/10 01:47:58;;;;;;;10.93;2.20;;;;;;;;;;5025147;28;19920;-64
2022/11/10 01:50:28;;;;;;;12.88;2.53;;;;;;;;;;5026079;28;20029;-64
2022/11/10 01:52:58;;;;;;;6.90;2.03;;;;;;;;;;5025017;28;20560;-64
2022/11/10 01:55:24;;;;;;;9.63;2.25;;;;;;;;;;5032591;28;20111;-64
2022/11/10 01:57:50;;;;;;;11.65;1.88;;;;;;;;;;5042072;28;20544;-64
2022/11/10 02:00:17;;;;;;;6.72;1.95;;;;;;;;;;5044820;28;20020;-64
2022/11/10 02:03:10;;;;;;;12.20;2.20;;;;;;;;;;5043572;28;20036;-64
2022/11/10 02:05:35;;;;;;;6.80;3.05;;;;;;;;;;5043909;28;20453;-64
2022/11/10 02:08:02;;;;;;;6.45;2.20;;;;;;;;;;5045833;28;20644;-64
2022/11/10 02:10:27;;;;;;;10.18;2.50;;;;;;;;;;5048102;28;20057;-64
2022/11/10 02:12:53;;;;;;;5.70;2.40;;;;;;;;;;5064485;28;20690;-64
2022/11/10 02:15:18;;;;;;;10.07;1.88;;;;;;;;;;5065064;28;20032;-64
2022/11/10 02:17:47;;;;;;;7.90;1.92;;;;;;;;;;5050995;28;20041;-64
2022/11/10 02:20:16;;;;;;;7.72;2.42;;;;;;;;;;5045716;28;20079;-64
2022/11/10 02:22:41;;;;;;;6.57;1.88;;;;;;;;;;5045605;28;20064;-64
2022/11/10 02:25:07;;;;;;;9.38;2.33;;;;;;;;;;5041733;28;20402;-64
2022/11/10 02:27:33;;;;;;;6.38;2.42;;;;;;;;;;5045703;28;20155;-64
2022/11/10 02:29:59;;;;;;;5.03;1.50;;;;;;;;;;5044819;28;20059;-64
2022/11/10 02:32:24;;;;;;;4.95;1.88;;;;;;;;;;5043626;28;20044;-64
2022/11/10 02:34:50;;;;;;;11.18;1.90;;;;;;;;;;5045384;28;20033;-64
2022/11/10 02:37:15;;;;;;;4.47;1.67;;;;;;;;;;5045088;28;20032;-64
2022/11/10 02:39:40;;;;;;;6.63;1.88;;;;;;;;;;5040564;28;20035;-64
2022/11/10 02:42:09;;;;;;;6.18;1.88;;;;;;;;;;5045476;28;20009;-64
2022/11/10 02:44:35;;;;;;;12.75;2.10;;;;;;;;;;5043801;28;20098;-64
2022/11/10 02:47:01;;;;;;;8.38;1.90;;;;;;;;;;5041544;28;20104;-64
2022/11/10 02:49:26;;;;;;;7.15;2.10;;;;;;;;;;5061005;28;20645;-64
2022/11/10 02:51:51;;;;;;;5.32;1.73;;;;;;;;;;5064603;28;20512;-64
2022/11/10 02:54:16;;;;;;;3.97;2.00;;;;;;;;;;5065606;28;20028;-64
2022/11/10 02:56:42;;;;;;;8.60;2.00;;;;;;;;;;5064642;28;20029;-64
2022/11/10 02:59:07;;;;;;;7.85;2.42;;;;;;;;;;5064836;28;20511;-64
2022/11/10 03:01:32;;;;;;;10.48;2.05;;;;;;;;;;5063420;28;20048;-64
2022/11/10 03:03:58;;;;;;;13.48;2.05;;;;;;;;;;5065122;28;20033;-64
2022/11/10 03:06:23;;;;;;;8.38;2.33;;;;;;;;;;5064894;28;20032;-64
2022/11/10 03:08:48;;;;;;;5.25;1.70;;;;;;;;;;5055060;28;20433;-64
2022/11/10 03:11:13;;;;;;;6.90;2.05;;;;;;;;;;5051907;28;20037;-64
2022/11/10 03:13:39;;;;;;;9.15;2.30;;;;;;;;;;5065270;28;20051;-64
2022/11/10 03:16:04;;;;;;;9.57;2.22;;;;;;;;;;5063264;28;20521;-64
2022/11/10 03:18:29;;;;;;;7.00;2.22;;;;;;;;;;5045225;28;20021;-64
2022/11/10 03:20:55;;;;;;;13.35;2.25;;;;;;;;;;5045116;28;20068;-64
2022/11/10 03:23:20;;;;;;;10.10;2.33;;;;;;;;;;5044504;28;20041;-64
2022/11/10 03:25:45;;;;;;;13.23;2.30;;;;;;;;;;5044973;28;20048;-64
2022/11/10 03:28:11;;;;;;;7.22;1.95;;;;;;;;;;5044176;28;20036;-64
2022/11/10 03:30:37;;;;;;;8.52;2.45;;;;;;;;;;5044926;28;20036;-64
2022/11/10 03:33:03;;;;;;;10.82;2.55;;;;;;;;;;5044780;28;20021;-64
2022/11/10 03:35:28;;;;;;;5.32;1.73;;;;;;;;;;5044871;28;20115;-64
2022/11/10 03:37:53;;;;;;;14.18;2.65;;;;;;;;;;5044543;28;20029;-64
2022/11/10 03:40:19;;;;;;;8.13;2.08;;;;;;;;;;5039136;28;20043;-65
2022/11/10 03:42:45;;;;;;;13.15;2.75;;;;;;;;;;5058906;28;20039;-64
2022/11/10 03:45:12;;;;;;;12.95;2.30;;;;;;;;;;5064853;28;20024;-64
2022/11/10 03:47:38;;;;;;;8.35;1.85;;;;;;;;;;5063020;28;20644;-64
2022/11/10 03:50:04;;;;;;;6.57;1.77;;;;;;;;;;5064172;28;20115;-64
2022/11/10 03:52:29;;;;;;;12.18;2.72;;;;;;;;;;5062684;28;20707;-64
2022/11/10 03:54:54;;;;;;;13.98;2.20;;;;;;;;;;5064624;28;20555;-64
2022/11/10 03:57:20;;;;;;;7.82;2.22;;;;;;;;;;5047051;28;20101;-64
2022/11/10 03:59:45;;;;;;;11.25;3.08;;;;;;;;;;5044187;28;20043;-64
2022/11/10 04:02:10;;;;;;;9.35;2.30;;;;;;;;;;5043860;28;20110;-64
2022/11/10 04:10:04;;;;;;;13.07;2.13;;;;;;;;;;5043831;28;20082;-64
2022/11/10 04:20:41;;;;;;;7.40;1.60;;;;;;;;;;5043361;28;20460;-64
2022/11/10 04:28:44;;;;;;;7.45;2.30;;;;;;;;;;5047220;28;20123;-64
2022/11/10 04:31:10;;;;;;;5.88;2.15;;;;;;;;;;5047628;28;20072;-64
2022/11/10 04:33:36;;;;;;;5.90;1.92;;;;;;;;;;5047696;28;20406;-64
2022/11/10 04:36:02;;;;;;;7.20;2.15;;;;;;;;;;5046530;28;20029;-64
2022/11/10 04:38:27;;;;;;;12.43;2.45;;;;;;;;;;5047578;28;20068;-64
2022/11/10 04:40:53;;;;;;;11.43;2.22;;;;;;;;;;5029017;28;20079;-64
2022/11/10 04:43:18;;;;;;;13.55;2.10;;;;;;;;;;5027086;28;20044;-64
2022/11/10 04:45:43;;;;;;;7.88;2.10;;;;;;;;;;5027771;28;20098;-64
2022/11/10 04:48:08;;;;;;;14.82;3.15;;;;;;;;;;5027615;28;20501;-64
2022/11/10 04:50:34;;;;;;;13.38;2.45;;;;;;;;;;5025867;28;20042;-64
2022/11/10 04:52:59;;;;;;;7.07;2.10;;;;;;;;;;5034320;28;20455;-64
2022/11/10 04:55:25;;;;;;;10.73;2.30;;;;;;;;;;5045256;28;20049;-64
2022/11/10 04:57:50;;;;;;;5.72;2.40;;;;;;;;;;5040775;28;20528;-64
2022/11/10 05:00:16;;;;;;;14.80;2.63;;;;;;;;;;5047806;28;20025;-64
2022/11/10 05:02:41;;;;;;;7.28;2.28;;;;;;;;;;5046973;28;20719;-64
2022/11/10 05:05:07;;;;;;;9.63;2.72;;;;;;;;;;5047071;28;20041;-64
2022/11/10 05:07:32;;;;;;;10.30;2.55;;;;;;;;;;5047145;28;20032;-64
2022/11/10 05:09:58;;;;;;;11.00;3.20;;;;;;;;;;5045572;28;20648;-64
2022/11/10 05:12:23;;;;;;;11.45;2.72;;;;;;;;;;5065176;28;20056;-64
2022/11/10 05:14:48;;;;;;;8.57;2.70;;;;;;;;;;5066894;28;20040;-64
2022/11/10 05:17:13;;;;;;;10.88;2.80;;;;;;;;;;5066697;28;20668;-64
2022/11/10 05:19:39;;;;;;;14.00;3.17;;;;;;;;;;5042340;28;20059;-64
2022/11/10 05:22:05;;;;;;;12.95;2.50;;;;;;;;;;5050427;28;20039;-64
2022/11/10 05:24:31;;;;;;;7.95;2.50;;;;;;;;;;5065617;28;20448;-64
2022/11/10 05:26:56;;;;;;;9.00;2.40;;;;;;;;;;5063022;28;20575;-64
2022/11/10 05:29:21;;;;;;;10.63;3.13;;;;;;;;;;5031764;28;20168;-64
2022/11/10 05:31:46;;;;;;;14.38;2.70;;;;;;;;;;5027098;28;20091;-64
2022/11/10 05:34:13;;;;;;;11.80;2.58;;;;;;;;;;5026432;28;20113;-64
2022/11/10 05:36:38;;;;;;;9.20;2.53;;;;;;;;;;5027112;28;20022;-64
2022/11/10 05:39:04;;;;;;;9.98;2.45;;;;;;;;;;5030664;28;20027;-64
2022/11/10 05:41:29;;;;;;;9.02;1.80;;;;;;;;;;5046588;28;20025;-64
2022/11/10 05:43:54;;;;;;;13.30;2.10;;;;;;;;;;5046336;28;20624;-64
2022/11/10 05:46:20;;;;;;;8.45;2.53;;;;;;;;;;5045949;28;20033;-64
2022/11/10 05:48:45;;;;;;;7.30;2.03;;;;;;;;;;5046008;28;20067;-64
2022/11/10 05:51:11;;;;;;;4.88;1.50;;;;;;;;;;5046767;28;20192;-64
2022/11/10 05:53:36;;;;;;;12.93;2.33;;;;;;;;;;5045852;28;20029;-63
2022/11/10 05:56:01;;;;;;;12.57;2.35;;;;;;;;;;5045163;28;20091;-64
2022/11/10 05:58:27;;;;;;;8.10;1.88;;;;;;;;;;5043221;28;20028;-64
2022/11/10 06:00:52;;;;;;;8.90;1.92;;;;;;;;;;5035270;28;20071;-64
2022/11/10 06:03:18;;;;;;;5.85;1.80;;;;;;;;;;5043249;28;20032;-64
2022/11/10 06:05:44;;;;;;;15.43;2.10;;;;;;;;;;5045151;28;20033;-64
2022/11/10 06:08:09;;;;;;;4.53;1.92;;;;;;;;;;5045700;28;20047;-64
2022/11/10 06:10:35;;;;;;;12.70;1.95;;;;;;;;;;5049417;28;20060;-64
2022/11/10 06:13:02;;;;;;;12.48;1.88;;;;;;;;;;5066074;28;20402;-64
2022/11/10 06:15:28;;;;;;;8.02;1.83;;;;;;;;;;5052864;28;20734;-64
2022/11/10 06:17:54;;;;;;;8.77;1.98;;;;;;;;;;5029215;28;20080;-64
2022/11/10 06:20:20;;;;;;;9.13;2.60;;;;;;;;;;5026025;28;20103;-64
2022/11/10 06:23:04;;;;;;;6.25;1.90;;;;;;;;;;5025493;28;20045;-65
2022/11/10 06:25:31;;;;;;;7.82;2.15;;;;;;;;;;5025698;28;20037;-64
2022/11/10 06:27:57;;;;;;;11.80;2.13;;;;;;;;;;5028814;28;20025;-64
2022/11/10 06:30:22;;;;;;;5.65;2.25;;;;;;;;;;5044165;28;20642;-64
2022/11/10 06:32:48;;;;;;;6.95;1.88;;;;;;;;;;5045055;28;20048;-64
2022/11/10 06:35:13;;;;;;;11.55;1.98;;;;;;;;;;5044890;28;20040;-64
2022/11/10 06:37:39;;;;;;;10.18;2.20;;;;;;;;;;5027975;28;20053;-64
2022/11/10 06:40:06;;;;;;;6.28;2.08;;;;;;;;;;5037082;28;20151;-64
2022/11/10 06:42:33;;;;;;;7.13;2.38;;;;;;;;;;5045781;28;20029;-64
2022/11/10 06:44:58;;;;;;;7.00;2.05;;;;;;;;;;5044875;28;20039;-63
2022/11/10 06:47:23;;;;;;;15.23;2.60;;;;;;;;;;5044878;28;20048;-64
2022/11/10 06:49:49;;;;;;;5.80;1.98;;;;;;;;;;5045441;28;20140;-64
2022/11/10 06:52:14;;;;;;;6.72;2.30;;;;;;;;;;5045346;28;20044;-64
2022/11/10 06:54:39;;;;;;;5.38;2.25;;;;;;;;;;5040448;28;20107;-64
2022/11/10 06:57:04;;;;;;;9.40;1.85;;;;;;;;;;5036772;28;20407;-64
2022/11/10 06:59:30;;;;;;;5.30;2.08;;;;;;;;;;5025042;28;20049;-64
2022/11/10 07:01:55;;;;;;;5.45;2.17;;;;;;;;;;5026914;28;20057;-64
2022/11/10 07:04:21;;;;;;;8.68;2.22;;;;;;;;;;5042057;28;20106;-64
2022/11/10 07:06:46;;;;;;;10.35;2.38;;;;;;;;;;5043839;28;20102;-64
2022/11/10 07:09:12;;;;;;;7.47;2.03;;;;;;;;;;5045342;28;20494;-64
2022/11/10 07:11:37;;;;;;;4.93;1.67;;;;;;;;;;5055221;28;20460;-64
2022/11/10 07:14:02;;;;;;;15.05;2.67;;;;;;;;;;5065048;28;20039;-64
2022/11/10 07:16:28;;;;;;;11.73;1.90;;;;;;;;;;5064555;28;20033;-64
2022/11/10 07:18:53;;;;;;;13.07;1.85;;;;;;;;;;5063623;28;20036;-64
2022/11/10 07:21:18;;;;;;;10.27;1.45;;;;;;;;;;5065417;28;20044;-64
2022/11/10 07:23:45;;;;;;;7.50;1.67;;;;;;;;;;5050011;28;20587;-64
2022/11/10 07:26:11;;;;;;;9.07;2.50;;;;;;;;;;5041643;28;20025;-64
2022/11/10 07:28:36;;;;;;;9.50;2.13;;;;;;;;;;5024473;28;20093;-64
2022/11/10 07:31:02;;;;;;;6.32;1.50;;;;;;;;;;5042984;28;20059;-64
2022/11/10 07:33:27;;;;;;;11.30;1.98;;;;;;;;;;5045188;28;20033;-64
2022/11/10 07:35:59;;;;;;;12.20;2.75;;;;;;;;;;5044784;28;20052;-64
2022/11/10 07:38:24;;;;;;;11.07;1.83;;;;;;;;;;5044126;28;20029;-64
2022/11/10 07:40:51;;;;;;;5.63;1.58;;;;;;;;;;5044561;28;20048;-64
2022/11/10 07:43:21;;;;;;;14.75;2.90;;;;;;;;;;5044534;28;20078;-64
2022/11/10 07:45:48;;;;;;;5.30;2.10;;;;;;;;;;5043692;28;20040;-64
2022/11/10 07:48:13;;;;;;;4.63;1.85;;;;;;;;;;5047953;28;20102;-64
2022/11/10 07:50:39;;;;;;;9.45;2.65;;;;;;;;;;5048598;28;20025;-64
2022/11/10 07:53:10;;;;;;;3.92;1.33;;;;;;;;;;5048605;28;20407;-64
2022/11/10 07:55:37;;;;;;;12.93;2.63;;;;;;;;;;5049006;28;20044;-64
2022/11/10 07:58:04;;;;;;;6.57;2.60;;;;;;;;;;5047704;28;20071;-64
2022/11/10 08:00:30;;;;;;;10.05;2.88;;;;;;;;;;5049149;28;20052;-64
2022/11/10 08:03:08;;;;;;;8.20;2.70;;;;;;;;;;5048647;28;20059;-64
2022/11/10 08:05:34;;;;;;;8.68;2.80;;;;;;;;;;5044511;28;20049;-64
2022/11/10 08:08:00;;;;;;;10.55;2.47;;;;;;;;;;5048434;28;20053;-63
2022/11/10 08:10:27;;;;;;;9.68;2.35;;;;;;;;;;5050257;28;20036;-64
2022/11/10 08:12:56;;;;;;;12.93;2.80;;;;;;;;;;5066577;28;20035;-64
2022/11/10 08:15:22;;;;;;;3.10;1.60;;;;;;;;;;5068202;28;20061;-64
2022/11/10 08:17:48;;;;;;;6.38;2.22;;;;;;;;;;5067469;28;20040;-64
2022/11/10 08:20:13;;;;;;;4.30;1.42;;;;;;;;;;5067373;28;20032;-64
2022/11/10 08:22:39;;;;;;;3.97;1.77;;;;;;;;;;5067036;28;20032;-64
2022/11/10 08:25:04;;;;;;;8.95;2.60;;;;;;;;;;5065496;28;20641;-64
2022/11/10 08:27:30;;;;;;;11.48;2.50;;;;;;;;;;5065744;28;20056;-64
2022/11/10 08:29:55;;;;;;;5.85;1.95;;;;;;;;;;5066226;28;20124;-64
2022/11/10 08:32:20;;;;;;;8.25;2.10;;;;;;;;;;5066670;28;20690;-64
2022/11/10 08:34:46;;;;;;;8.60;2.30;;;;;;;;;;5067526;28;20040;-64
2022/11/10 08:37:11;;;;;;;13.15;3.13;;;;;;;;;;5066247;28;20034;-64
2022/11/10 08:39:36;;;;;;;3.03;2.08;;;;;;;;;;5045888;28;20021;-64
2022/11/10 08:42:02;;;;;;;13.57;3.13;;;;;;;;;;5047540;28;20025;-64
2022/11/10 08:44:27;;;;;;;6.68;1.83;;;;;;;;;;5047399;28;20457;-64
2022/11/10 08:46:52;;;;;;;8.05;2.65;;;;;;;;;;5043514;28;20037;-64
2022/11/10 08:49:18;;;;;;;15.20;2.83;;;;;;;;;;5045317;28;20123;-64
2022/11/10 08:51:43;;;;;;;15.63;2.88;;;;;;;;;;5039353;28;20062;-64
2022/11/10 08:54:09;;;;;;;7.82;1.50;;;;;;;;;;5047875;28;20533;-64
2022/11/10 08:56:34;;;;;;;7.25;2.47;;;;;;;;;;5040836;28;20037;-64
2022/11/10 08:58:59;;;;;;;5.53;2.60;;;;;;;;;;5023885;28;20029;-64
2022/11/10 09:01:24;;;;;;;6.97;1.90;;;;;;;;;;5022947;28;20033;-64
2022/11/10 09:03:50;;;;;;;8.98;2.47;;;;;;;;;;5029591;28;20035;-64
2022/11/10 09:06:15;;;;;;;6.45;2.10;;;;;;;;;;5044073;28;20145;-64
2022/11/10 09:08:40;;;;;;;10.43;2.58;;;;;;;;;;5039700;28;20108;-64
2022/11/10 09:11:06;;;;;;;8.20;2.92;;;;;;;;;;5033970;28;20384;-64
2022/11/10 09:13:31;;;;;;;12.93;2.85;;;;;;;;;;5037234;28;20086;-64
2022/11/10 09:16:04;;;;;;;4.55;1.92;;;;;;;;;;5047147;28;20059;-65
2022/11/10 09:18:29;;;;;;;6.65;2.53;;;;;;;;;;5030598;28;20100;-64
2022/11/10 09:20:54;;;;;;;11.35;2.70;;;;;;;;;;5044955;28;20112;-64
2022/11/10 09:23:21;;;;;;;10.48;2.80;;;;;;;;;;5041282;28;20052;-64
2022/11/10 09:25:52;;;;;;;9.90;3.10;;;;;;;;;;5037935;28;20522;-64
2022/11/10 09:28:19;;;;;;;10.35;2.40;;;;;;;;;;5045361;28;20083;-64
2022/11/10 09:30:46;;;;;;;9.45;2.60;;;;;;;;;;5042250;28;20502;-64
2022/11/10 09:33:11;;;;;;;10.13;2.58;;;;;;;;;;5046015;28;20039;-64
2022/11/10 09:35:36;;;;;;;17.88;3.80;;;;;;;;;;5044134;28;20122;-64
2022/11/10 09:38:03;;;;;;;13.18;4.15;;;;;;;;;;5029798;28;20124;-64
2022/11/10 09:40:47;;;;;;;12.20;4.45;;;;;;;;;;5036553;28;20055;-64
2022/11/10 09:43:20;;;;;;;10.75;3.85;;;;;;;;;;5033754;28;20049;-64
2022/11/10 09:45:50;;;;;;;15.23;4.33;;;;;;;;;;5034636;28;20025;-64
2022/11/10 09:48:34;;;;;;;14.07;4.95;;;;;;;;;;5035522;28;20600;-64
2022/11/10 09:51:11;;;;;;;12.98;3.60;;;;;;;;;;5049987;28;20127;-64
2022/11/10 09:53:42;;;;;;;10.05;3.50;;;;;;;;;;5048177;28;20056;-65
2022/11/10 09:56:12;;;;;;;12.45;3.67;;;;;;;;;;5066080;28;20518;-64
2022/11/10 09:58:41;;;;;;;8.38;2.92;;;;;;;;;;5066365;28;20028;-64
2022/11/10 10:01:24;;;;;;;9.30;2.70;;;;;;;;;;5036187;28;20041;-64
2022/11/10 10:04:19;;;;;;;;;;;;;;;;;;5025334;28;20051;-64
2022/11/10 10:06:55;;;;;;;4.22;2.13;;;;;;;;;;5005495;28;19913;-64
2022/11/10 10:09:39;;;;;;;7.07;2.63;;;;;;;;;;5031432;28;20029;-65
2022/11/10 10:12:23;;;;;;;6.53;1.88;;;;;;;;;;5043014;28;20595;-64
2022/11/10 10:15:06;;;;;;;8.57;1.90;;;;;;;;;;5036418;28;20549;-64
2022/11/10 10:17:41;;;;;;;10.60;2.00;;;;;;;;;;5031880;28;20030;-64
2022/11/10 10:20:36;;;;;;;7.35;1.75;;;;;;;;;;5033829;28;20132;-64
2022/11/10 10:23:16;;;;;;;9.52;2.30;;;;;;;;;;5043408;28;20029;-64
2022/11/10 10:25:43;;;;;;;7.63;2.28;;;;;;;;;;5042913;28;20025;-64
2022/11/10 10:28:39;;;;;;;7.65;1.77;;;;;;;;;;5041786;28;20036;-64
2022/11/10 10:31:20;;;;;;;6.35;2.08;;;;;;;;;;5049462;28;20048;-64
2022/11/10 10:33:46;;;;;;;5.45;1.98;;;;;;;;;;5041715;28;20032;-64
2022/11/10 10:36:30;;;;;;;10.65;1.85;;;;;;;;;;5044923;28;20397;-64
2022/11/10 10:38:59;;;;;;;;;;;;;;;;;;5043629;28;20123;-64
2022/11/10 10:41:32;;;;;;;3.95;1.40;;;;;;;;;;5031856;28;19920;-64
2022/11/10 10:44:00;;;;;;;4.97;1.45;;;;;;;;;;5024787;28;20033;-64
2022/11/10 10:46:28;;;;;;;5.97;1.80;;;;;;;;;;5024413;28;20107;-64
2022/11/10 10:49:05;;;;;;;3.15;1.52;;;;;;;;;;5029271;28;20041;-64
2022/11/10 10:51:30;;;;;;;7.47;2.13;;;;;;;;;;5036822;28;20025;-64
2022/11/10 10:53:55;;;;;;;12.45;1.85;;;;;;;;;;5039052;28;20107;-64
2022/11/10 10:56:30;;;;;;;5.45;1.80;;;;;;;;;;5039929;28;20032;-64
2022/11/10 10:59:08;;;;;;;5.85;1.73;;;;;;;;;;5031734;28;20043;-64
2022/11/10 11:01:37;;;;;;;5.30;1.80;;;;;;;;;;5023632;28;20029;-65
2022/11/10 11:04:29;;;;;;;4.97;1.60;;;;;;;;;;5024664;28;20463;-64
2022/11/10 11:06:57;;;;;;;6.05;1.70;;;;;;;;;;5024545;28;20034;-64
2022/11/10 11:09:25;;;;;;;5.40;1.50;;;;;;;;;;5025012;28;20109;-64
2022/11/10 11:12:07;;;;;;;5.93;1.30;;;;;;;;;;5051661;28;20058;-64
2022/11/10 11:14:32;;;;;;;5.30;1.45;;;;;;;;;;5045937;28;20040;-64
2022/11/10 11:17:01;;;;;;;6.95;1.63;;;;;;;;;;5045403;28;20047;-64
2022/11/10 11:19:31;;;;;;;9.43;2.40;;;;;;;;;;5043991;28;20506;-64
2022/11/10 11:22:15;;;;;;;7.70;1.80;;;;;;;;;;5042318;28;20039;-64
2022/11/10 11:24:40;;;;;;;4.82;1.80;;;;;;;;;;5043932;28;20039;-64
2022/11/10 11:27:29;;;;;;;7.72;1.90;;;;;;;;;;5043161;28;20017;-65
2022/11/10 11:30:12;;;;;;;5.88;2.08;;;;;;;;;;5041249;28;20029;-64
2022/11/10 11:33:05;;;;;;;7.45;2.03;;;;;;;;;;5044310;28;20043;-64
2022/11/10 11:35:48;;;;;;;5.60;2.17;;;;;;;;;;5043645;28;20055;-64
2022/11/10 11:38:21;;;;;;;7.28;2.00;;;;;;;;;;5044067;28;20063;-64
2022/11/10 11:40:55;;;;;;;9.10;2.25;;;;;;;;;;5031491;28;21006;-64
2022/11/10 11:43:21;;;;;;;6.90;2.10;;;;;;;;;;5038545;28;20083;-64
2022/11/10 11:46:34;;;;;;;4.22;1.80;;;;;;;;;;5032648;28;20068;-64
2022/11/10 11:49:26;;;;;;;5.47;1.70;;;;;;;;;;5033611;28;20037;-64
2022/11/10 11:52:06;;;;;;;11.32;2.20;;;;;;;;;;5064165;28;20025;-64
2022/11/10 11:55:03;;;;;;;3.53;1.65;;;;;;;;;;5063422;28;20029;-64
2022/11/10 11:57:43;;;;;;;4.20;1.50;;;;;;;;;;5054046;28;20514;-64
2022/11/10 12:00:12;;;;;;;4.05;1.40;;;;;;;;;;5025869;28;20064;-64
2022/11/10 12:03:02;;;;;;;3.53;1.50;;;;;;;;;;5023976;28;20034;-64
2022/11/10 12:05:49;;;;;;;4.13;1.50;;;;;;;;;;5024217;28;20312;-64
2022/11/10 12:08:35;;;;;;;6.50;1.50;;;;;;;;;;5023417;28;20048;-64
2022/11/10 12:11:18;;;;;;;3.28;1.50;;;;;;;;;;5036576;28;20037;-64
2022/11/10 12:14:01;;;;;;;3.72;1.42;;;;;;;;;;5061668;28;20047;-64
2022/11/10 12:16:32;;;;;;;2.85;1.33;;;;;;;;;;5060766;28;20070;-64
2022/11/10 12:19:14;;;;;;;4.28;1.42;;;;;;;;;;5049819;28;20708;-64
2022/11/10 12:22:08;;;;;;;5.30;1.60;;;;;;;;;;5039846;28;20033;-64
2022/11/10 12:24:47;;;;;;;2.53;1.40;;;;;;;;;;5041783;28;20033;-64
2022/11/10 12:27:22;;;;;;;2.90;1.17;;;;;;;;;;5042437;28;20044;-64
2022/11/10 12:30:15;;;;;;;4.20;1.60;;;;;;;;;;5041220;28;21160;-64
2022/11/10 12:32:47;;;;;;;6.82;1.48;;;;;;;;;;5034044;28;20044;-64
2022/11/10 12:35:16;;;;;;;4.72;1.23;;;;;;;;;;5034493;28;20033;-64
2022/11/10 12:38:05;;;;;;;3.15;1.02;;;;;;;;;;5029669;28;20033;-64
2022/11/10 12:40:37;;;;;;;4.07;1.42;;;;;;;;;;5046277;28;20456;-64
2022/11/10 12:43:10;;;;;;;6.05;1.58;;;;;;;;;;5039649;28;20029;-64
2022/11/10 12:45:44;;;;;;;7.55;1.30;;;;;;;;;;5032583;28;20065;-64
2022/11/10 12:48:12;;;;;;;4.05;1.50;;;;;;;;;;5034486;28;20043;-64
2022/11/10 12:50:44;;;;;;;4.70;1.42;;;;;;;;;;5037150;28;20025;-65
2022/11/10 12:53:21;;;;;;;5.45;1.55;;;;;;;;;;5041133;28;20029;-64
2022/11/10 12:55:53;;;;;;;7.07;1.95;;;;;;;;;;5034418;28;20580;-64
2022/11/10 12:58:19;;;;;;;4.70;1.45;;;;;;;;;;5053693;28;20052;-64
2022/11/10 13:00:57;;;;;;;5.15;1.45;;;;;;;;;;5034629;28;20032;-64
2022/11/10 13:03:32;;;;;;;5.20;1.27;;;;;;;;;;5041066;28;20431;-64
2022/11/10 13:06:21;;;;;;;6.93;1.60;;;;;;;;;;5038987;28;20544;-64
2022/11/10 13:08:48;;;;;;;4.82;1.63;;;;;;;;;;5026657;28;20143;-64
2022/11/10 13:11:13;;;;;;;3.53;1.30;;;;;;;;;;5032832;28;20060;-64
2022/11/10 13:13:51;;;;;;;4.90;1.40;;;;;;;;;;5042818;28;20115;-64
2022/11/10 13:16:43;;;;;;;3.40;1.20;;;;;;;;;;5037315;28;20033;-64
2022/11/10 13:19:23;;;;;;;2.78;1.30;;;;;;;;;;5034234;28;20866;-64
2022/11/10 13:21:51;;;;;;;5.68;1.67;;;;;;;;;;5034506;28;20053;-64
2022/11/10 13:24:24;;;;;;;4.80;1.35;;;;;;;;;;5039312;28;20016;-64
2022/11/10 13:26:54;;;;;;;3.75;1.30;;;;;;;;;;5039860;28;20044;-64
2022/11/10 13:29:30;;;;;;;6.60;1.40;;;;;;;;;;5040841;28;20856;-64
2022/11/10 13:31:58;;;;;;;3.25;1.33;;;;;;;;;;5038711;28;20045;-64
2022/11/10 13:34:31;;;;;;;6.13;1.25;;;;;;;;;;5026189;28;20225;-64
2022/11/10 13:36:57;;;;;;;3.88;1.33;;;;;;;;;;5027091;28;20087;-64
2022/11/10 13:39:25;;;;;;;5.97;1.00;;;;;;;;;;5036789;28;20593;-64
2022/11/10 13:42:06;;;;;;;6.57;1.42;;;;;;;;;;5034501;28;20033;-64
2022/11/10 13:44:35;;;;;;;2.50;1.10;;;;;;;;;;5046344;28;20040;-64
2022/11/10 13:47:06;;;;;;;5.25;1.33;;;;;;;;;;5046528;28;20045;-64
2022/11/10 13:49:58;;;;;;;3.63;1.40;;;;;;;;;;5044657;28;20545;-64
2022/11/10 13:52:55;;;;;;;4.90;1.50;;;;;;;;;;5036692;28;20049;-64
2022/11/10 13:55:33;;;;;;;5.03;1.38;;;;;;;;;;5046407;28;20511;-64
2022/11/10 13:58:02;;;;;;;5.20;1.42;;;;;;;;;;5044047;28;20446;-64
2022/11/10 14:00:31;;;;;;;4.28;1.85;;;;;;;;;;5035435;28;20029;-64
2022/11/10 14:03:00;;;;;;;6.65;1.55;;;;;;;;;;5046638;28;20028;-64
2022/11/10 14:05:28;;;;;;;4.90;1.75;;;;;;;;;;5045176;28;20037;-64
2022/11/10 14:08:05;;;;;;;5.30;1.63;;;;;;;;;;5048793;28;20075;-64
2022/11/10 14:10:40;;;;;;;6.68;1.80;;;;;;;;;;5065650;28;20059;-64
2022/11/10 14:13:16;;;;;;;9.02;2.03;;;;;;;;;;5064524;28;20029;-64
2022/11/10 14:15:46;;;;;;;5.80;1.63;;;;;;;;;;5065728;28;20024;-64
2022/11/10 14:18:39;;;;;;;6.57;1.77;;;;;;;;;;5066857;28;20699;-64
2022/11/10 14:21:09;;;;;;;5.33;2.10;;;;;;;;;;5055827;28;20036;-64
2022/11/10 14:23:50;;;;;;;6.95;1.77;;;;;;;;;;5065370;28;20063;-64
2022/11/10 14:26:29;;;;;;;3.78;1.75;;;;;;;;;;5065576;28;20722;-64
2022/11/10 14:28:54;;;;;;;4.90;1.70;;;;;;;;;;5033942;28;20550;-64
2022/11/10 14:31:22;;;;;;;6.18;1.70;;;;;;;;;;5040100;28;20055;-64
2022/11/10 14:33:53;;;;;;;6.80;1.63;;;;;;;;;;5038093;28;20391;-64
2022/11/10 14:36:19;;;;;;;5.13;1.67;;;;;;;;;;5044412;28;20028;-64
2022/11/10 14:38:44;;;;;;;2.08;1.10;;;;;;;;;;5035187;28;20495;-64
2022/11/10 14:41:28;;;;;;;6.55;1.30;;;;;;;;;;5044688;28;20029;-64
2022/11/10 14:44:05;;;;;;;6.05;1.45;;;;;;;;;;5044647;28;20593;-64
2022/11/10 14:46:31;;;;;;;6.03;1.45;;;;;;;;;;5042845;28;20091;-64
2022/11/10 14:48:58;;;;;;;3.33;1.85;;;;;;;;;;5044320;28;20251;-64
2022/11/10 14:51:25;;;;;;;3.90;1.38;;;;;;;;;;5037733;28;20021;-64
2022/11/10 14:53:53;;;;;;;3.38;1.20;;;;;;;;;;5055577;28;20446;-64
2022/11/10 14:56:26;;;;;;;3.00;1.35;;;;;;;;;;5044368;28;20119;-64
2022/11/10 14:58:55;;;;;;;1.67;1.20;;;;;;;;;;5044939;28;20118;-64
2022/11/10 15:01:26;;;;;;;3.45;1.63;;;;;;;;;;5044193;28;20573;-64
2022/11/10 15:03:52;;;;;;;5.43;1.60;;;;;;;;;;5045085;28;20032;-64
2022/11/10 15:06:19;;;;;;;6.65;1.92;;;;;;;;;;5043883;28;20446;-64
2022/11/10 15:08:44;;;;;;;5.05;1.42;;;;;;;;;;5036628;28;20041;-64
2022/11/10 15:11:38;;;;;;;5.85;1.63;;;;;;;;;;5049528;28;20443;-64
2022/11/10 15:14:04;;;;;;;5.43;1.90;;;;;;;;;;5047625;28;20055;-64
2022/11/10 15:16:32;;;;;;;2.92;1.40;;;;;;;;;;5036419;28;20036;-64